createdAt,value
2017-10-09T00:02:01.395Z,74.10
2017-10-09T00:04:28.947Z,73.80
2017-10-09T00:06:57.306Z,74.30
2017-10-09T00:09:24.888Z,73.80
2017-10-09T00:11:52.519Z,74.00
2017-10-09T00:14:20.045Z,74.20
2017-10-09T00:16:47.613Z,74.10
2017-10-09T00:19:15.149Z,73.80
2017-10-09T00:21:42.789Z,73.80
2017-10-09T00:24:11.111Z,74.40
2017-10-09T00:26:38.727Z,74.10
2017-10-09T00:29:07.061Z,74.80
2017-10-09T00:31:34.606Z,74.10
2017-10-09T00:34:02.185Z,74.30
2017-10-09T00:36:31.353Z,74.80
2017-10-09T00:38:59.090Z,73.90
2017-10-09T00:41:27.380Z,74.20
2017-10-09T00:43:56.636Z,73.80
2017-10-09T00:46:24.977Z,73.90
2017-10-09T00:48:53.308Z,73.90
2017-10-09T00:53:49.858Z,73.80
2017-10-09T00:56:17.403Z,74.00
2017-10-09T00:58:44.938Z,73.70
2017-10-09T01:01:12.503Z,73.60
2017-10-09T01:03:40.112Z,73.50
2017-10-09T01:06:08.796Z,73.60
2017-10-09T01:08:37.127Z,74.30
2017-10-09T01:11:04.674Z,74.00
2017-10-09T01:13:32.964Z,73.80
2017-10-09T01:16:00.524Z,73.90
2017-10-09T01:18:28.089Z,74.00
2017-10-09T01:20:55.680Z,74.10
2017-10-09T01:23:23.637Z,74.40
2017-10-09T01:25:51.207Z,74.50
2017-10-09T01:28:18.780Z,74.70
2017-10-09T01:30:47.074Z,75.40
2017-10-09T01:33:15.386Z,75.40
2017-10-09T01:35:48.080Z,74.90
2017-10-09T01:38:16.072Z,75.00
2017-10-09T01:40:43.650Z,74.80
2017-10-09T01:43:11.211Z,74.80
2017-10-09T01:45:39.614Z,75.50
2017-10-09T01:48:07.560Z,74.70
2017-10-09T01:50:35.888Z,75.80
2017-10-09T01:53:03.481Z,74.80
2017-10-09T01:55:31.033Z,74.70
2017-10-09T01:58:03.583Z,74.90
2017-10-09T02:00:31.187Z,74.90
2017-10-09T02:02:59.259Z,74.50
2017-10-09T02:05:26.865Z,74.50
2017-10-09T02:07:54.814Z,74.30
2017-10-09T02:10:23.223Z,75.20
2017-10-09T02:12:50.814Z,74.70
2017-10-09T02:15:18.387Z,74.70
2017-10-09T02:17:50.941Z,74.50
2017-10-09T02:20:18.937Z,74.60
2017-10-09T02:22:46.499Z,74.60
2017-10-09T02:25:19.061Z,75.20
2017-10-09T02:27:46.682Z,74.80
2017-10-09T02:30:14.643Z,74.50
2017-10-09T02:32:42.170Z,74.60
2017-10-09T02:35:09.712Z,74.80
2017-10-09T02:37:37.286Z,75.20
2017-10-09T02:40:04.821Z,74.90
2017-10-09T02:42:37.410Z,74.80
2017-10-09T02:45:04.965Z,74.50
2017-10-09T02:47:32.590Z,74.60
2017-10-09T02:50:00.139Z,74.60
2017-10-09T02:52:27.712Z,74.30
2017-10-09T02:54:55.271Z,74.20
2017-10-09T02:57:22.811Z,74.20
2017-10-09T02:59:51.303Z,74.50
2017-10-09T03:02:19.672Z,74.70
2017-10-09T03:04:48.012Z,74.80
2017-10-09T03:07:15.528Z,74.20
2017-10-09T03:09:43.100Z,74.30
2017-10-09T03:12:10.645Z,74.40
2017-10-09T03:14:39.014Z,74.90
2017-10-09T03:17:07.370Z,74.70
2017-10-09T03:19:45.239Z,74.70
2017-10-09T03:22:12.810Z,74.10
2017-10-09T03:24:42.923Z,74.30
2017-10-09T03:27:25.248Z,74.30
2017-10-09T03:29:53.301Z,74.20
2017-10-09T03:32:20.888Z,74.80
2017-10-09T03:34:48.509Z,74.10
2017-10-09T03:37:17.157Z,74.70
2017-10-09T03:39:46.301Z,74.80
2017-10-09T03:42:13.907Z,74.20
2017-10-09T03:44:41.501Z,74.50
2017-10-09T03:47:09.056Z,74.40
2017-10-09T03:49:36.650Z,74.40
2017-10-09T03:52:04.182Z,74.30
2017-10-09T03:54:31.776Z,74.20
2017-10-09T03:57:04.322Z,74.20
2017-10-09T03:59:31.897Z,74.70
2017-10-09T04:01:59.426Z,74.10
2017-10-09T04:04:27.795Z,74.60
2017-10-09T04:06:56.122Z,74.50
2017-10-09T04:09:23.708Z,74.20
2017-10-09T04:11:51.302Z,74.80
2017-10-09T04:14:19.642Z,74.30
2017-10-09T04:16:47.240Z,74.20
2017-10-09T04:19:15.620Z,74.00
2017-10-09T04:21:43.948Z,74.10
2017-10-09T04:24:11.501Z,73.90
2017-10-09T04:26:39.150Z,73.50
2017-10-09T04:29:11.777Z,73.60
2017-10-09T04:31:39.352Z,73.20
2017-10-09T04:34:07.312Z,73.20
2017-10-09T04:36:34.969Z,73.40
2017-10-09T04:39:02.557Z,73.30
2017-10-09T04:41:30.881Z,74.50
2017-10-09T04:43:58.466Z,74.50
2017-10-09T04:46:26.117Z,73.50
2017-10-09T04:48:53.714Z,73.30
2017-10-09T04:51:22.403Z,73.20
2017-10-09T04:53:51.591Z,73.70
2017-10-09T04:56:19.905Z,73.70
2017-10-09T04:58:47.490Z,73.00
2017-10-09T05:01:15.194Z,72.70
2017-10-09T05:03:47.684Z,72.60
2017-10-09T05:06:21.046Z,73.40
2017-10-09T05:08:48.640Z,72.40
2017-10-09T05:11:16.957Z,73.10
2017-10-09T05:13:44.516Z,72.50
2017-10-09T05:16:12.085Z,72.50
2017-10-09T05:18:39.634Z,72.30
2017-10-09T05:21:07.277Z,72.40
2017-10-09T05:23:34.824Z,71.60
2017-10-09T05:26:02.396Z,71.70
2017-10-09T05:28:29.965Z,71.60
2017-10-09T05:31:02.600Z,71.50
2017-10-09T05:33:30.158Z,71.00
2017-10-09T05:35:57.885Z,71.60
2017-10-09T05:38:25.444Z,71.00
2017-10-09T05:40:53.039Z,70.80
2017-10-09T05:43:20.697Z,70.50
2017-10-09T05:45:48.226Z,70.50
2017-10-09T05:48:16.564Z,70.40
2017-10-09T05:50:44.881Z,70.30
2017-10-09T05:53:12.406Z,69.80
2017-10-09T05:55:40.748Z,69.80
2017-10-09T05:58:08.314Z,69.30
2017-10-09T06:00:35.870Z,69.40
2017-10-09T06:03:03.436Z,69.50
2017-10-09T06:05:31.044Z,69.40
2017-10-09T06:07:58.818Z,68.90
2017-10-09T06:10:26.413Z,69.00
2017-10-09T06:12:59.024Z,68.40
2017-10-09T06:15:28.753Z,68.10
2017-10-09T06:18:01.376Z,67.80
2017-10-09T06:20:28.905Z,67.50
2017-10-09T06:22:56.526Z,67.10
2017-10-09T06:25:24.159Z,66.80
2017-10-09T06:27:51.721Z,66.80
2017-10-09T06:30:19.659Z,66.30
2017-10-09T06:32:47.657Z,66.10
2017-10-09T06:35:15.253Z,66.40
2017-10-09T06:37:42.831Z,66.00
2017-10-09T06:40:10.373Z,66.10
2017-10-09T06:42:38.013Z,66.40
2017-10-09T06:45:05.594Z,66.10
2017-10-09T06:47:34.653Z,65.50
2017-10-09T06:50:02.223Z,65.50
2017-10-09T06:52:29.785Z,64.70
2017-10-09T06:54:57.334Z,64.00
2017-10-09T06:57:24.972Z,64.20
2017-10-09T06:59:52.518Z,64.10
2017-10-09T07:02:20.945Z,63.00
2017-10-09T07:04:48.594Z,63.00
2017-10-09T07:07:16.153Z,63.40
2017-10-09T07:09:43.751Z,62.80
2017-10-09T07:12:12.105Z,62.00
2017-10-09T07:14:39.653Z,61.90
2017-10-09T07:17:07.484Z,61.00
2017-10-09T07:19:45.532Z,60.50
2017-10-09T07:22:13.097Z,60.50
2017-10-09T07:24:40.641Z,60.00
2017-10-09T07:27:08.223Z,60.50
2017-10-09T07:29:35.785Z,60.20
2017-10-09T07:32:03.338Z,60.10
2017-10-09T07:34:30.963Z,60.00
2017-10-09T07:36:58.510Z,59.70
2017-10-09T07:39:26.845Z,59.20
2017-10-09T07:41:54.383Z,59.20
2017-10-09T07:44:21.980Z,59.30
2017-10-09T07:46:49.720Z,59.50
2017-10-09T07:49:17.248Z,59.30
2017-10-09T07:51:44.861Z,59.20
2017-10-09T07:54:12.391Z,58.60
2017-10-09T07:56:39.972Z,57.80
2017-10-09T07:59:07.563Z,56.40
2017-10-09T08:01:36.604Z,53.90
2017-10-09T08:04:04.166Z,53.90
2017-10-09T08:06:31.745Z,53.00
2017-10-09T08:08:59.306Z,53.10
2017-10-09T08:11:26.923Z,53.20
2017-10-09T08:13:55.273Z,50.20
2017-10-09T08:16:23.874Z,47.80
2017-10-09T08:18:52.198Z,45.30
2017-10-09T08:21:20.757Z,45.30
2017-10-09T08:23:48.326Z,43.80
2017-10-09T08:26:15.896Z,43.50
2017-10-09T08:28:43.435Z,43.40
2017-10-09T08:31:10.972Z,44.20
2017-10-09T08:33:38.497Z,45.10
2017-10-09T08:36:06.066Z,46.00
2017-10-09T08:38:33.619Z,46.30
2017-10-09T08:53:46.193Z,45.10
2017-10-09T08:58:46.597Z,45.40
2017-10-09T09:01:14.968Z,45.40
2017-10-09T09:03:42.499Z,44.90
2017-10-09T09:06:10.091Z,44.80
2017-10-09T09:16:17.395Z,43.80
2017-10-09T09:18:44.993Z,43.60
2017-10-09T09:26:19.121Z,44.20
2017-10-09T09:31:24.665Z,44.30
2017-10-09T09:36:25.862Z,40.50
2017-10-09T09:38:53.441Z,40.60
2017-10-09T09:46:27.479Z,39.30
2017-10-09T09:48:55.878Z,36.20
2017-10-09T09:51:24.194Z,36.60
2017-10-09T09:56:25.410Z,39.30
2017-10-09T09:58:53.861Z,41.00
2017-10-09T10:01:21.476Z,40.90
2017-10-09T10:03:49.085Z,39.80
2017-10-09T10:06:16.674Z,39.40
2017-10-09T10:08:44.234Z,39.40
2017-10-09T10:11:11.804Z,40.60
2017-10-09T10:13:40.139Z,38.00
2017-10-09T10:16:07.776Z,38.00
2017-10-09T10:18:35.379Z,35.00
2017-10-09T10:21:03.070Z,32.50
2017-10-09T10:23:30.671Z,30.80
2017-10-09T10:25:58.243Z,32.60
2017-10-09T10:28:25.791Z,32.50
2017-10-09T10:30:53.400Z,32.00
2017-10-09T10:33:20.984Z,33.20
2017-10-09T10:35:49.299Z,33.20
2017-10-09T10:38:16.872Z,32.30
2017-10-09T10:40:44.384Z,31.70
2017-10-09T10:43:12.783Z,31.80
2017-10-09T10:45:40.354Z,32.40
2017-10-09T10:48:07.953Z,31.70
2017-10-09T10:50:35.477Z,31.70
2017-10-09T10:53:03.177Z,31.80
2017-10-09T10:55:30.716Z,32.00
2017-10-09T10:57:58.282Z,32.90
2017-10-09T11:00:25.919Z,33.00
2017-10-09T11:02:53.457Z,33.60
2017-10-09T11:05:21.023Z,35.90
2017-10-09T11:07:48.632Z,36.90
2017-10-09T11:10:16.217Z,37.30
2017-10-09T11:12:44.554Z,39.00
2017-10-09T11:15:12.122Z,39.10
2017-10-09T11:17:39.727Z,40.30
2017-10-09T11:20:08.025Z,41.10
2017-10-09T11:22:35.582Z,40.80
2017-10-09T11:25:03.588Z,40.60
2017-10-09T11:27:31.184Z,40.30
2017-10-09T11:29:59.478Z,40.70
2017-10-09T11:32:27.829Z,41.10
2017-10-09T11:34:55.433Z,41.00
2017-10-09T11:37:22.980Z,42.20
2017-10-09T11:39:51.323Z,42.80
2017-10-09T11:42:18.928Z,42.00
2017-10-09T11:44:46.457Z,42.00
2017-10-09T11:47:14.026Z,42.30
2017-10-09T11:49:42.451Z,42.00
2017-10-09T11:52:09.983Z,41.40
2017-10-09T11:54:38.442Z,42.40
2017-10-09T11:57:06.046Z,41.80
2017-10-09T11:59:33.697Z,42.50
2017-10-09T12:02:01.235Z,41.80
2017-10-09T12:04:29.559Z,42.70
2017-10-09T12:06:57.081Z,42.60
2017-10-09T12:09:25.473Z,43.40
2017-10-09T12:11:53.053Z,43.90
2017-10-09T12:14:20.740Z,43.90
2017-10-09T12:16:48.302Z,43.90
2017-10-09T12:19:15.881Z,45.10
2017-10-09T12:21:44.251Z,46.20
2017-10-09T12:24:11.769Z,42.40
2017-10-09T12:26:39.290Z,45.90
2017-10-09T12:29:07.704Z,46.40
2017-10-09T12:31:35.299Z,46.30
2017-10-09T12:34:03.278Z,45.80
2017-10-09T12:36:30.823Z,46.00
2017-10-09T12:38:58.338Z,46.00
2017-10-09T12:41:26.550Z,46.70
2017-10-09T12:43:54.097Z,47.70
2017-10-09T12:46:21.661Z,48.20
2017-10-09T12:48:49.218Z,49.10
2017-10-09T12:51:16.781Z,49.00
2017-10-09T12:53:44.660Z,49.30
2017-10-09T12:56:12.218Z,49.50
2017-10-09T12:58:39.762Z,50.20
2017-10-09T13:01:08.144Z,50.60
2017-10-09T13:03:35.757Z,51.00
2017-10-09T13:06:04.827Z,51.70
2017-10-09T13:08:32.424Z,51.60
2017-10-09T13:11:00.056Z,52.10
2017-10-09T13:13:27.634Z,52.20
2017-10-09T13:15:56.484Z,52.20
2017-10-09T13:18:24.167Z,51.30
2017-10-09T13:20:51.818Z,51.00
2017-10-09T13:23:19.345Z,51.10
2017-10-09T13:25:47.040Z,51.60
2017-10-09T13:28:14.609Z,51.50
2017-10-09T13:30:42.632Z,51.70
2017-10-09T13:33:10.887Z,52.00
2017-10-09T13:35:39.776Z,53.10
2017-10-09T13:38:08.093Z,49.00
2017-10-09T13:40:35.699Z,52.40
2017-10-09T13:43:03.715Z,52.60
2017-10-09T13:53:12.084Z,52.20
2017-10-09T14:00:47.121Z,52.80
2017-10-09T14:08:21.321Z,53.50
2017-10-09T14:13:22.556Z,54.00
2017-10-09T14:18:24.753Z,54.10
2017-10-09T14:25:58.127Z,53.60
2017-10-09T14:30:58.473Z,53.30
2017-10-09T14:40:51.240Z,54.30
2017-10-09T14:43:19.554Z,54.50
2017-10-09T14:45:47.174Z,54.60
2017-10-09T14:48:14.866Z,54.70
2017-10-09T14:50:42.450Z,54.90
2017-10-09T14:53:10.031Z,54.80
2017-10-09T14:55:38.540Z,55.00
2017-10-09T14:58:06.118Z,54.70
2017-10-09T15:00:33.874Z,55.10
2017-10-09T15:03:01.445Z,55.20
2017-10-09T15:05:29.838Z,55.50
2017-10-09T15:07:57.422Z,56.00
2017-10-09T15:10:26.530Z,57.10
2017-10-09T15:12:54.489Z,57.00
2017-10-09T15:15:22.098Z,57.50
2017-10-09T15:17:50.477Z,58.40
2017-10-09T15:20:18.038Z,58.10
2017-10-09T15:22:45.767Z,58.40
2017-10-09T15:25:13.382Z,58.80
2017-10-09T15:27:41.956Z,59.00
2017-10-09T15:30:09.569Z,59.10
2017-10-09T15:32:38.742Z,59.40
2017-10-09T15:35:06.360Z,59.50
2017-10-09T15:37:33.960Z,59.70
2017-10-09T15:40:01.550Z,59.90
2017-10-09T15:42:29.956Z,60.70
2017-10-09T15:44:58.345Z,60.40
2017-10-09T15:47:26.782Z,60.00
2017-10-09T15:49:54.433Z,60.30
2017-10-09T15:52:22.041Z,60.60
2017-10-09T15:54:50.688Z,61.10
2017-10-09T15:57:18.435Z,61.00
2017-10-09T15:59:46.091Z,61.60
2017-10-09T16:02:13.749Z,62.10
2017-10-09T16:04:41.376Z,62.80
2017-10-09T16:07:09.748Z,63.90
2017-10-09T16:09:38.052Z,64.10
2017-10-09T16:12:05.676Z,63.90
2017-10-09T16:14:34.801Z,64.80
2017-10-09T16:17:02.374Z,64.40
2017-10-09T16:19:30.053Z,64.80
2017-10-09T16:21:57.637Z,65.00
2017-10-09T16:24:26.278Z,65.80
2017-10-09T16:26:54.082Z,65.60
2017-10-09T16:29:21.820Z,65.90
2017-10-09T16:31:49.401Z,66.30
2017-10-09T16:34:17.066Z,66.40
2017-10-09T16:36:44.821Z,66.40
2017-10-09T16:39:12.923Z,66.60
2017-10-09T16:41:40.562Z,66.70
2017-10-09T16:44:08.253Z,67.10
2017-10-09T16:46:36.624Z,67.80
2017-10-09T16:49:04.241Z,67.40
2017-10-09T16:51:31.901Z,67.70
2017-10-09T16:53:59.499Z,67.90
2017-10-09T16:56:27.887Z,68.30
2017-10-09T16:58:55.456Z,68.20
2017-10-09T17:01:23.010Z,68.10
2017-10-09T17:03:50.619Z,68.60
2017-10-09T17:06:18.440Z,68.50
2017-10-09T17:08:46.086Z,68.70
2017-10-09T17:11:13.777Z,68.70
2017-10-09T17:13:41.357Z,68.90
2017-10-09T17:16:09.771Z,69.00
2017-10-09T17:18:37.540Z,69.10
2017-10-09T17:21:05.205Z,69.40
2017-10-09T17:23:32.799Z,69.30
2017-10-09T17:26:00.479Z,69.60
2017-10-09T17:28:31.277Z,70.30
2017-10-09T17:31:03.905Z,69.80
2017-10-09T17:33:32.252Z,70.50
2017-10-09T17:35:59.837Z,70.00
2017-10-09T17:38:28.211Z,71.00
2017-10-09T17:40:55.868Z,70.00
2017-10-09T17:43:24.640Z,70.00
2017-10-09T17:45:52.226Z,70.50
2017-10-09T17:48:19.894Z,70.60
2017-10-09T17:50:48.369Z,70.60
2017-10-09T17:53:16.458Z,70.60
2017-10-09T17:55:44.844Z,70.70
2017-10-09T17:58:13.203Z,71.40
2017-10-09T18:00:41.590Z,71.50
2017-10-09T18:03:09.912Z,71.50
2017-10-09T18:05:37.508Z,71.30
2017-10-09T18:08:14.760Z,71.50
2017-10-09T18:10:42.334Z,72.00
2017-10-09T18:13:09.997Z,72.30
2017-10-09T18:15:37.580Z,72.80
2017-10-09T18:18:05.208Z,72.90
2017-10-09T18:23:15.698Z,73.70
2017-10-09T18:25:43.323Z,73.70
2017-10-09T18:28:11.037Z,74.10
2017-10-09T18:30:38.661Z,74.70
2017-10-09T18:33:06.264Z,75.20
2017-10-09T18:35:39.062Z,75.50
2017-10-09T18:38:13.158Z,76.00
2017-10-09T18:40:40.727Z,75.60
2017-10-09T18:43:08.426Z,76.00
2017-10-09T18:45:36.413Z,76.80
2017-10-09T18:48:04.013Z,77.30
2017-10-09T18:50:32.006Z,77.70
2017-10-09T18:52:59.663Z,78.40
2017-10-09T18:55:27.246Z,78.20
2017-10-09T18:57:54.850Z,78.00
2017-10-09T19:00:22.464Z,78.30
2017-10-09T19:02:50.115Z,79.00
2017-10-09T19:05:17.714Z,78.00
2017-10-09T19:07:45.380Z,77.80
2017-10-09T19:10:12.920Z,77.60
2017-10-09T19:12:41.320Z,78.00
2017-10-09T19:15:09.067Z,77.30
2017-10-09T19:17:37.812Z,77.10
2017-10-09T19:20:05.403Z,77.10
2017-10-09T19:22:33.775Z,78.00
2017-10-09T19:25:06.561Z,77.90
2017-10-09T19:27:34.251Z,78.00
2017-10-09T19:30:02.788Z,78.10
2017-10-09T19:32:31.368Z,78.30
2017-10-09T19:34:59.026Z,78.30
2017-10-09T19:37:26.691Z,79.20
2017-10-09T19:39:54.487Z,80.00
2017-10-09T19:42:22.800Z,80.70
2017-10-09T19:44:50.377Z,78.10
2017-10-09T19:47:17.991Z,79.70
2017-10-09T19:49:46.506Z,80.10
2017-10-09T19:52:15.448Z,80.90
2017-10-09T19:54:44.452Z,80.60
2017-10-09T19:57:12.868Z,81.00
2017-10-09T19:59:40.503Z,80.10
2017-10-09T20:02:08.908Z,80.90
2017-10-09T20:04:36.516Z,80.60
2017-10-09T20:07:04.159Z,80.00
2017-10-09T20:09:31.862Z,81.10
2017-10-09T20:11:59.508Z,80.80
2017-10-09T20:14:27.133Z,80.40
2017-10-09T20:16:54.774Z,80.50
2017-10-09T20:19:23.249Z,81.30
2017-10-09T20:21:51.634Z,81.30
2017-10-09T20:24:20.158Z,80.00
2017-10-09T20:26:48.559Z,79.70
2017-10-09T20:29:17.300Z,78.90
2017-10-09T20:31:45.699Z,80.00
2017-10-09T20:34:32.726Z,78.50
2017-10-09T20:37:00.691Z,79.00
2017-10-09T20:39:28.303Z,78.80
2017-10-09T20:41:56.275Z,78.90
2017-10-09T20:44:23.889Z,79.50
2017-10-09T20:46:51.460Z,79.00
2017-10-09T20:49:19.103Z,78.80
2017-10-09T20:51:46.698Z,78.70
2017-10-09T20:54:14.253Z,79.10
2017-10-09T20:56:41.962Z,79.10
2017-10-09T20:59:10.312Z,79.60
2017-10-09T21:01:38.386Z,79.50
2017-10-09T21:04:05.975Z,79.90
2017-10-09T21:06:34.330Z,80.20
2017-10-09T21:09:01.957Z,80.20
2017-10-09T21:11:29.529Z,79.90
2017-10-09T21:13:57.108Z,79.50
2017-10-09T21:16:24.751Z,79.80
2017-10-09T21:18:52.382Z,79.70
2017-10-09T21:21:19.957Z,79.50
2017-10-09T21:23:47.563Z,79.80
2017-10-09T21:26:15.938Z,80.00
2017-10-09T21:28:43.597Z,80.00
2017-10-09T21:31:11.135Z,80.00
2017-10-09T21:33:38.751Z,80.10
2017-10-09T21:36:06.677Z,80.20
2017-10-09T21:38:35.146Z,80.40
2017-10-09T21:41:02.800Z,80.40
2017-10-09T21:43:30.411Z,80.30
2017-10-09T21:45:58.054Z,80.30
2017-10-09T21:48:25.678Z,80.30
2017-10-09T21:50:53.270Z,80.70
2017-10-09T21:53:20.921Z,80.50
2017-10-09T21:55:48.487Z,80.70
2017-10-09T21:58:16.109Z,80.20
2017-10-09T22:00:43.645Z,80.30
2017-10-09T22:03:12.000Z,80.60
2017-10-09T22:05:39.559Z,80.40
2017-10-09T22:08:07.209Z,80.50
2017-10-09T22:10:34.853Z,80.50
2017-10-09T22:13:02.528Z,80.40
2017-10-09T22:15:31.079Z,80.80
2017-10-09T22:17:58.745Z,80.70
2017-10-09T22:20:26.353Z,80.70
2017-10-09T22:22:53.934Z,80.60
2017-10-09T22:25:22.269Z,80.90
2017-10-09T22:27:49.911Z,80.90
2017-10-09T22:30:17.581Z,80.90
2017-10-09T22:32:45.237Z,80.90
2017-10-09T22:35:12.822Z,81.00
2017-10-09T22:37:45.411Z,81.20
2017-10-09T22:40:12.992Z,81.30
2017-10-09T22:42:40.556Z,81.40
2017-10-09T22:45:08.158Z,81.80
2017-10-09T22:47:35.834Z,81.90
2017-10-09T22:50:03.496Z,82.20
2017-10-09T22:52:31.059Z,82.10
2017-10-09T22:54:58.792Z,82.10
2017-10-09T22:57:27.190Z,82.50
2017-10-09T22:59:54.824Z,81.80
2017-10-09T23:02:22.422Z,81.90
2017-10-09T23:04:50.017Z,82.40
2017-10-09T23:07:17.716Z,82.00
2017-10-09T23:09:46.013Z,82.50
2017-10-09T23:12:13.654Z,82.00
2017-10-09T23:14:41.651Z,82.70
2017-10-09T23:17:09.448Z,82.90
2017-10-09T23:19:37.138Z,82.30
2017-10-09T23:22:04.753Z,82.70
2017-10-09T23:24:32.376Z,82.60
2017-10-09T23:27:00.751Z,83.20
2017-10-09T23:29:29.191Z,83.30
2017-10-09T23:31:56.846Z,83.30
2017-10-09T23:34:24.466Z,83.20
2017-10-09T23:36:52.882Z,83.30
2017-10-09T23:39:20.471Z,82.60
2017-10-09T23:41:48.058Z,83.20
2017-10-09T23:44:17.191Z,83.70
2017-10-09T23:46:44.757Z,83.00
2017-10-09T23:49:12.338Z,82.80
2017-10-09T23:51:40.293Z,83.00
2017-10-09T23:54:07.871Z,83.40
2017-10-09T23:56:35.476Z,83.40
2017-10-09T23:59:03.857Z,84.00
